Time;durP1;ratioP1;P1;durP2;ratioP2;P2;SDS_P1;SDS_P2;PMS_P1;PMS_P2;Temp;Humidity;BMP_temperature;BMP_pressure;BME280_temperature;BME280_humidity;BME280_pressure;Samples;Min_cycle;Max_cycle;Signal;HPM_P1;HPM_P2
2022/09/05 00:02:05;;;;;;;4.47;3.13;;;21.20;72.80;;;;;;5104514;28;20047;-89
2022/09/05 00:04:58;;;;;;;7.72;3.70;;;21.20;73.00;;;;;;5099346;28;20035;-89
2022/09/05 00:07:33;;;;;;;7.97;3.42;;;21.20;72.70;;;;;;5102283;28;20038;-88
2022/09/05 00:10:55;;;;;;;7.43;3.30;;;21.30;72.80;;;;;;5080895;28;20028;-89
2022/09/05 00:13:29;;;;;;;4.30;3.20;;;21.10;73.60;;;;;;5023826;28;20038;-89
2022/09/05 00:16:54;;;;;;;6.22;4.22;;;21.00;74.10;;;;;;5037141;28;20044;-91
2022/09/05 00:19:29;;;;;;;12.30;3.70;;;20.90;74.60;;;;;;5063049;28;20029;-90
2022/09/05 00:22:10;;;;;;;5.75;3.50;;;20.80;75.10;;;;;;5039881;28;20029;-89
2022/09/05 00:24:35;;;;;;;7.45;3.35;;;20.80;74.80;;;;;;5087256;28;20044;-90
2022/09/05 00:27:16;;;;;;;7.20;3.80;;;20.80;74.90;;;;;;5098430;28;20039;-87
2022/09/05 00:30:20;;;;;;;9.93;3.50;;;20.90;74.60;;;;;;5102494;28;20016;-88
2022/09/05 00:33:14;;;;;;;7.95;4.30;;;21.00;74.20;;;;;;4997158;28;20053;-90
2022/09/05 00:36:01;;;;;;;8.40;4.55;;;20.90;74.40;;;;;;4988472;28;20030;-90
2022/09/05 00:38:28;;;;;;;8.77;4.00;;;21.00;74.40;;;;;;5098123;28;20039;-89
2022/09/05 00:41:08;;;;;;;5.82;3.83;;;21.00;74.10;;;;;;5122401;28;20016;-88
2022/09/05 00:43:41;;;;;;;7.88;3.88;;;21.10;73.70;;;;;;5105193;28;20110;-89
2022/09/05 00:46:12;;;;;;;6.60;4.00;;;21.10;73.60;;;;;;5083386;28;20048;-89
2022/09/05 00:49:02;;;;;;;9.35;3.78;;;21.10;73.70;;;;;;5098149;28;20031;-88
2022/09/05 00:51:47;;;;;;;5.97;3.72;;;21.20;73.20;;;;;;5113257;28;20020;-88
2022/09/05 00:54:22;;;;;;;8.07;3.60;;;21.10;73.80;;;;;;5079811;28;20035;-88
2022/09/05 00:57:19;;;;;;;5.72;3.60;;;21.10;73.60;;;;;;5080181;28;20020;-89
2022/09/05 01:00:05;;;;;;;5.97;3.83;;;21.00;73.90;;;;;;5098076;28;20505;-87
2022/09/05 01:02:52;;;;;;;9.60;3.75;;;21.00;73.90;;;;;;5084371;28;20035;-88
2022/09/05 01:05:39;;;;;;;6.07;4.15;;;20.90;74.10;;;;;;5119186;28;20059;-88
2022/09/05 01:08:42;;;;;;;7.80;4.07;;;20.90;74.20;;;;;;5099766;28;20113;-88
2022/09/05 01:11:11;;;;;;;8.07;4.00;;;20.90;74.10;;;;;;5097535;28;20510;-89
2022/09/05 01:13:47;;;;;;;7.53;3.97;;;20.80;74.20;;;;;;5097801;28;20164;-88
2022/09/05 01:16:30;;;;;;;6.82;4.10;;;20.90;74.20;;;;;;5094355;28;20477;-89
2022/09/05 01:19:14;;;;;;;7.75;4.18;;;20.80;74.60;;;;;;5117600;28;20027;-88
2022/09/05 01:21:58;;;;;;;8.43;4.25;;;20.80;74.90;;;;;;5121323;28;20028;-88
2022/09/05 01:24:54;;;;;;;7.32;4.00;;;20.80;74.70;;;;;;5102030;28;20038;-87
2022/09/05 01:27:41;;;;;;;7.20;3.70;;;20.80;74.40;;;;;;5102926;28;20043;-87
2022/09/05 01:30:11;;;;;;;8.38;4.25;;;20.80;74.90;;;;;;5097251;28;20379;-88
2022/09/05 01:33:13;;;;;;;6.97;4.25;;;20.80;74.70;;;;;;5100748;28;20030;-89
2022/09/05 01:36:00;;;;;;;8.50;4.57;;;20.80;75.00;;;;;;5103379;28;20068;-88
2022/09/05 01:39:11;;;;;;;5.50;4.20;;;20.80;75.00;;;;;;5090540;28;20147;-89
2022/09/05 01:41:51;;;;;;;7.45;4.70;;;20.70;75.30;;;;;;5068478;28;20039;-88
2022/09/05 01:44:31;;;;;;;7.40;4.15;;;20.70;75.50;;;;;;5083557;28;20039;-87
2022/09/05 01:47:18;;;;;;;9.95;4.40;;;20.70;75.60;;;;;;5097319;28;20085;-89
2022/09/05 01:50:19;;;;;;;8.68;4.03;;;20.60;75.60;;;;;;5103215;28;20030;-88
2022/09/05 01:52:53;;;;;;;6.75;3.50;;;20.70;75.70;;;;;;5105699;28;20036;-88
2022/09/05 01:55:38;;;;;;;6.35;3.75;;;20.60;75.80;;;;;;5100953;28;20085;-87
2022/09/05 01:58:12;;;;;;;6.88;3.97;;;20.70;75.80;;;;;;5096107;28;20467;-89
2022/09/05 02:00:45;;;;;;;9.45;4.28;;;20.80;75.70;;;;;;5081942;28;20082;-88
2022/09/05 02:03:29;;;;;;;6.60;4.55;;;20.80;75.70;;;;;;5096740;28;20087;-88
2022/09/05 02:06:19;;;;;;;8.65;4.72;;;20.70;75.70;;;;;;5103184;28;20028;-88
2022/09/05 02:09:13;;;;;;;9.75;4.28;;;20.70;76.00;;;;;;5098600;28;20107;-88
2022/09/05 02:11:44;;;;;;;8.45;4.60;;;20.60;76.10;;;;;;5112288;28;20032;-88
2022/09/05 02:14:38;;;;;;;8.95;4.45;;;20.60;76.20;;;;;;5096531;28;20028;-87
2022/09/05 02:17:21;;;;;;;7.57;4.30;;;20.70;75.80;;;;;;5100983;28;20035;-89
2022/09/05 02:20:23;;;;;;;5.78;4.18;;;20.70;76.10;;;;;;5116671;28;20028;-88
2022/09/05 02:23:09;;;;;;;6.82;4.20;;;20.60;76.10;;;;;;5097714;28;20082;-87
2022/09/05 02:26:01;;;;;;;9.23;4.43;;;20.70;75.60;;;;;;5096627;28;20081;-88
2022/09/05 02:28:45;;;;;;;6.80;4.45;;;20.70;75.80;;;;;;5099966;28;20021;-87
2022/09/05 02:31:32;;;;;;;7.60;4.35;;;20.80;75.90;;;;;;5096196;28;20028;-88
2022/09/05 02:34:10;;;;;;;7.00;4.43;;;20.60;75.90;;;;;;5083202;28;20020;-89
2022/09/05 02:36:51;;;;;;;7.85;4.60;;;20.70;76.10;;;;;;5113966;28;20023;-88
2022/09/05 02:39:28;;;;;;;7.45;4.43;;;20.60;76.10;;;;;;5096447;28;20036;-88
2022/09/05 02:42:01;;;;;;;9.90;4.78;;;20.70;75.90;;;;;;5097840;28;20052;-87
2022/09/05 02:44:33;;;;;;;9.55;4.20;;;20.70;75.70;;;;;;5096275;28;20032;-89
2022/09/05 02:47:02;;;;;;;8.25;4.40;;;20.70;76.00;;;;;;5099251;28;20031;-89
2022/09/05 02:49:39;;;;;;;8.52;4.63;;;20.60;76.10;;;;;;5096576;28;20024;-87
2022/09/05 02:52:08;;;;;;;6.88;3.83;;;20.60;76.00;;;;;;5119183;28;20047;-87
2022/09/05 02:54:41;;;;;;;6.82;4.03;;;20.70;75.80;;;;;;5093298;28;20088;-86
2022/09/05 02:57:27;;;;;;;5.65;4.82;;;20.70;76.20;;;;;;5098728;28;20024;-87
2022/09/05 03:00:17;;;;;;;6.88;4.18;;;20.60;76.20;;;;;;5095545;28;20067;-87
2022/09/05 03:02:52;;;;;;;8.23;4.95;;;20.60;76.40;;;;;;5102068;28;20024;-87
2022/09/05 03:05:39;;;;;;;9.15;4.38;;;20.60;76.40;;;;;;5102928;28;20364;-90
2022/09/05 03:08:33;;;;;;;6.95;3.95;;;20.60;76.40;;;;;;5122570;28;20016;-86
2022/09/05 03:11:36;;;;;;;6.75;4.35;;;20.70;76.20;;;;;;5120046;28;20106;-87
2022/09/05 03:14:40;;;;;;;6.75;4.60;;;20.60;76.20;;;;;;5104586;28;20019;-89
2022/09/05 03:17:08;;;;;;;8.40;4.40;;;20.60;76.00;;;;;;5098376;28;20091;-87
2022/09/05 03:19:49;;;;;;;11.45;4.82;;;20.60;76.40;;;;;;5102493;28;20035;-87
2022/09/05 03:22:37;;;;;;;6.32;3.95;;;20.60;76.50;;;;;;5099613;28;20066;-87
2022/09/05 03:25:23;;;;;;;6.63;4.82;;;20.60;76.30;;;;;;5101031;28;20024;-88
2022/09/05 03:28:16;;;;;;;7.45;4.60;;;20.60;76.30;;;;;;5099701;28;20039;-87
2022/09/05 03:30:56;;;;;;;5.55;4.20;;;20.60;76.40;;;;;;5082413;28;20036;-87
2022/09/05 03:33:54;;;;;;;8.48;4.57;;;20.60;76.40;;;;;;5100263;28;20029;-87
2022/09/05 03:36:54;;;;;;;7.07;4.70;;;20.60;76.60;;;;;;5066437;28;20104;-89
2022/09/05 03:39:41;;;;;;;6.90;4.57;;;20.50;76.50;;;;;;5113392;28;20031;-88
2022/09/05 03:42:25;;;;;;;6.70;4.32;;;20.60;76.70;;;;;;5103162;28;20039;-87
2022/09/05 03:45:13;;;;;;;6.07;4.10;;;20.60;76.60;;;;;;5120289;28;20462;-88
2022/09/05 03:47:54;;;;;;;9.00;4.45;;;20.50;76.80;;;;;;5105305;28;20035;-89
2022/09/05 03:50:36;;;;;;;6.65;4.20;;;20.50;76.90;;;;;;5108124;28;20012;-86
2022/09/05 03:53:23;;;;;;;7.07;3.78;;;20.50;76.80;;;;;;5119437;28;20553;-87
2022/09/05 03:56:10;;;;;;;6.47;3.85;;;20.50;76.60;;;;;;5101543;28;20513;-88
2022/09/05 03:59:02;;;;;;;7.28;4.10;;;20.50;77.10;;;;;;5099112;28;20101;-88
2022/09/05 04:01:34;;;;;;;6.35;4.45;;;20.50;77.00;;;;;;5101234;28;20051;-89
2022/09/05 04:04:25;;;;;;;8.98;4.72;;;20.50;76.90;;;;;;5099107;28;20024;-89
2022/09/05 04:06:58;;;;;;;5.80;4.35;;;20.50;77.00;;;;;;5084091;28;20517;-89
2022/09/05 04:09:44;;;;;;;6.68;5.05;;;20.50;76.80;;;;;;5098107;28;20107;-86
2022/09/05 04:12:19;;;;;;;8.75;4.30;;;20.50;76.60;;;;;;5102660;28;20058;-89
2022/09/05 04:14:58;;;;;;;7.53;4.47;;;20.60;76.60;;;;;;5080065;28;20073;-88
2022/09/05 04:17:36;;;;;;;7.05;4.60;;;20.60;76.90;;;;;;5101724;28;20090;-88
2022/09/05 04:20:14;;;;;;;7.43;3.90;;;20.60;76.70;;;;;;5098944;28;20028;-89
2022/09/05 04:23:06;;;;;;;7.53;3.97;;;20.50;77.10;;;;;;5084171;28;20043;-89
2022/09/05 04:25:53;;;;;;;8.00;4.65;;;20.40;77.40;;;;;;5098269;28;20036;-83
2022/09/05 04:28:50;;;;;;;7.78;5.47;;;20.40;77.40;;;;;;5100262;28;20020;-87
2022/09/05 04:31:25;;;;;;;9.10;4.90;;;20.30;77.60;;;;;;5096971;28;20027;-88
2022/09/05 04:34:12;;;;;;;7.35;4.07;;;20.30;77.80;;;;;;5100631;28;20030;-86
2022/09/05 04:36:39;;;;;;;9.15;4.63;;;20.30;77.80;;;;;;5100178;28;20028;-89
2022/09/05 04:39:25;;;;;;;11.15;5.22;;;20.30;77.90;;;;;;5099996;28;20032;-87
2022/09/05 04:42:08;;;;;;;8.95;5.10;;;20.20;78.10;;;;;;5100204;28;20038;-84
2022/09/05 04:44:46;;;;;;;6.63;4.53;;;20.20;78.40;;;;;;5098808;28;20395;-88
2022/09/05 04:47:29;;;;;;;8.43;4.88;;;20.20;78.40;;;;;;5080138;28;20032;-82
2022/09/05 04:50:30;;;;;;;;;;;;;;;;;;;;;
2022/09/05 04:53:11;;;;;;;7.72;4.63;;;20.20;78.30;;;;;;5098586;28;20083;-86
2022/09/05 04:55:42;;;;;;;7.88;4.80;;;20.20;78.50;;;;;;5097824;28;20054;-90
2022/09/05 04:58:30;;;;;;;8.32;5.28;;;20.00;78.90;;;;;;5082879;28;20032;-92
2022/09/05 05:01:05;;;;;;;12.20;5.65;;;20.00;79.00;;;;;;5083631;28;20026;-89
2022/09/05 05:03:33;;;;;;;6.55;5.15;;;20.20;78.40;;;;;;5095856;28;20031;-91
2022/09/05 05:06:30;;;;;;;9.38;5.40;;;20.20;78.20;;;;;;5093846;28;20548;-88
2022/09/05 05:09:05;;;;;;;6.78;5.13;;;20.30;78.00;;;;;;5086900;28;20054;-90
2022/09/05 05:11:31;;;;;;;9.38;5.45;;;20.30;77.90;;;;;;5111706;28;20081;-93
2022/09/05 05:14:02;;;;;;;10.50;6.20;;;20.30;78.40;;;;;;5104590;28;20028;-90
2022/09/05 05:16:42;;;;;;;6.68;5.03;;;20.30;78.20;;;;;;5095875;28;20024;-89
2022/09/05 05:19:38;;;;;;;8.15;5.90;;;20.30;78.00;;;;;;5096012;28;20050;-90
2022/09/05 05:22:06;;;;;;;7.40;4.93;;;20.20;78.20;;;;;;5099420;28;20039;-84
2022/09/05 05:24:40;;;;;;;10.70;5.50;;;20.20;78.30;;;;;;5091992;28;20725;-85
2022/09/05 05:27:30;;;;;;;9.05;5.95;;;20.30;78.10;;;;;;5086180;28;20091;-85
2022/09/05 05:30:29;;;;;;;9.57;5.33;;;20.20;78.20;;;;;;5105222;28;20513;-85
2022/09/05 05:32:55;;;;;;;9.57;5.50;;;20.20;78.30;;;;;;5086348;28;20304;-84
2022/09/05 05:35:27;;;;;;;7.65;5.50;;;20.20;78.10;;;;;;5106687;28;20027;-85
2022/09/05 05:38:17;;;;;;;8.43;4.97;;;20.30;78.00;;;;;;5105457;28;20031;-84
2022/09/05 05:40:51;;;;;;;12.38;5.45;;;20.20;78.30;;;;;;5106641;28;20024;-84
2022/09/05 05:43:26;;;;;;;6.78;5.22;;;20.00;78.90;;;;;;5102291;28;20020;-83
2022/09/05 05:45:59;;;;;;;7.13;5.28;;;19.90;79.10;;;;;;5096907;28;20032;-83
2022/09/05 05:48:38;;;;;;;6.85;5.20;;;19.90;79.10;;;;;;5096316;28;20020;-85
2022/09/05 05:51:32;;;;;;;12.13;5.90;;;19.90;79.20;;;;;;5097660;28;20516;-86
2022/09/05 05:54:23;;;;;;;9.43;5.32;;;19.90;79.20;;;;;;5077696;28;20413;-86
2022/09/05 05:57:28;;;;;;;9.43;6.03;;;20.00;79.00;;;;;;5082498;28;20036;-83
2022/09/05 05:59:57;;;;;;;9.95;5.47;;;20.00;79.00;;;;;;5073276;28;20035;-83
2022/09/05 06:02:59;;;;;;;8.52;5.70;;;20.10;78.50;;;;;;5110232;28;20080;-83
2022/09/05 06:05:43;;;;;;;14.70;5.78;;;20.10;78.60;;;;;;5031211;28;20152;-83
2022/09/05 06:08:22;;;;;;;12.45;6.35;;;20.10;78.50;;;;;;5086409;28;20055;-83
2022/09/05 06:11:17;;;;;;;8.23;6.18;;;20.10;78.70;;;;;;5091891;28;20036;-84
2022/09/05 06:13:43;;;;;;;9.80;6.25;;;19.90;79.30;;;;;;5116186;28;20058;-83
2022/09/05 06:16:48;;;;;;;8.40;5.72;;;19.90;79.60;;;;;;5116015;28;20024;-83
2022/09/05 06:19:33;;;;;;;11.23;5.97;;;19.90;79.60;;;;;;5062977;28;20036;-83
2022/09/05 06:22:10;;;;;;;11.30;6.07;;;19.90;79.80;;;;;;5096010;28;20052;-83
2022/09/05 06:24:56;;;;;;;14.90;7.30;;;19.90;79.70;;;;;;5098243;28;20054;-83
2022/09/05 06:27:46;;;;;;;11.60;5.65;;;19.90;79.70;;;;;;5095532;28;20114;-84
2022/09/05 06:30:18;;;;;;;9.65;5.65;;;20.00;79.50;;;;;;5095621;28;20645;-84
2022/09/05 06:33:01;;;;;;;9.55;5.82;;;20.00;79.80;;;;;;5077913;28;20036;-83
2022/09/05 06:36:01;;;;;;;9.70;5.60;;;20.00;79.50;;;;;;5092845;28;20016;-83
2022/09/05 06:38:51;;;;;;;9.77;5.57;;;20.00;79.50;;;;;;5105775;28;20035;-83
2022/09/05 06:41:38;;;;;;;12.05;6.40;;;20.10;79.50;;;;;;5116072;28;20027;-83
2022/09/05 06:44:12;;;;;;;9.45;6.57;;;20.20;79.30;;;;;;5114672;28;20438;-84
2022/09/05 06:46:41;;;;;;;8.90;6.28;;;20.30;79.00;;;;;;5073782;28;20053;-83
2022/09/05 06:49:37;;;;;;;10.80;6.43;;;20.30;79.00;;;;;;5066118;28;20048;-83
2022/09/05 06:52:31;;;;;;;10.07;6.43;;;20.10;79.50;;;;;;5069895;28;20025;-83
2022/09/05 06:55:32;;;;;;;10.27;6.03;;;20.20;79.40;;;;;;5054046;28;20198;-83
2022/09/05 06:57:58;;;;;;;11.27;6.30;;;20.10;79.80;;;;;;5066114;28;20404;-83
2022/09/05 07:00:28;;;;;;;10.38;6.68;;;20.20;79.70;;;;;;5054918;28;20029;-83
2022/09/05 07:03:32;;;;;;;8.35;5.95;;;20.20;79.80;;;;;;5089165;28;20035;-84
2022/09/05 07:06:14;;;;;;;8.57;6.28;;;20.20;79.70;;;;;;4996314;28;20129;-83
2022/09/05 07:09:01;;;;;;;7.90;5.88;;;20.30;79.40;;;;;;5066030;28;20425;-84
2022/09/05 07:11:42;;;;;;;13.20;6.40;;;20.30;79.80;;;;;;5072146;28;20036;-84
2022/09/05 07:14:24;;;;;;;10.35;6.60;;;20.30;79.80;;;;;;5085906;28;20084;-84
2022/09/05 07:16:54;;;;;;;10.55;6.80;;;20.30;79.70;;;;;;5074057;28;20435;-83
2022/09/05 07:19:28;;;;;;;13.10;6.63;;;20.30;79.70;;;;;;5074937;28;20040;-84
2022/09/05 07:22:23;;;;;;;10.18;6.63;;;20.30;79.70;;;;;;5068977;28;20044;-83
2022/09/05 07:24:51;;;;;;;13.75;7.53;;;20.50;79.50;;;;;;5053745;28;20116;-84
2022/09/05 07:27:26;;;;;;;13.45;7.25;;;20.60;79.10;;;;;;5054714;28;20108;-84
2022/09/05 07:29:56;;;;;;;11.82;7.25;;;20.70;79.20;;;;;;5054813;28;20021;-84
2022/09/05 07:32:23;;;;;;;10.05;6.93;;;20.80;78.90;;;;;;5054529;28;20029;-84
2022/09/05 07:34:51;;;;;;;13.48;7.28;;;20.80;78.60;;;;;;5074700;28;20150;-84
2022/09/05 07:37:25;;;;;;;11.05;7.03;;;20.90;78.20;;;;;;5074960;28;20035;-84
2022/09/05 07:40:15;;;;;;;12.07;6.90;;;20.90;78.30;;;;;;5074440;28;20037;-84
2022/09/05 07:42:47;;;;;;;;;;;21.00;78.20;;;;;;5070521;28;20131;-84
2022/09/05 07:45:21;;;;;;;14.15;7.07;;;21.10;78.00;;;;;;5070624;28;19927;-84
2022/09/05 07:47:59;;;;;;;10.38;6.90;;;21.20;77.70;;;;;;5094699;28;20081;-85
2022/09/05 07:50:26;;;;;;;14.60;7.55;;;21.10;77.70;;;;;;5098460;28;20020;-85
2022/09/05 07:52:55;;;;;;;12.70;6.97;;;21.00;78.20;;;;;;5080627;28;20101;-85
2022/09/05 07:55:36;;;;;;;10.30;7.50;;;21.20;78.10;;;;;;5118453;28;20023;-85
2022/09/05 07:58:07;;;;;;;14.95;7.10;;;21.30;77.80;;;;;;5118968;28;20051;-84
2022/09/05 08:00:34;;;;;;;11.43;6.20;;;21.20;77.80;;;;;;5109396;28;20024;-85
2022/09/05 08:03:12;;;;;;;11.48;6.72;;;21.20;77.70;;;;;;5080459;28;20046;-85
2022/09/05 08:05:44;;;;;;;10.98;5.93;;;21.40;77.30;;;;;;5098723;28;20028;-84
2022/09/05 08:08:22;;;;;;;12.48;7.30;;;21.40;76.80;;;;;;5098337;28;20031;-84
2022/09/05 08:10:54;;;;;;;11.32;6.93;;;21.50;76.50;;;;;;5118327;28;20031;-85
2022/09/05 08:13:26;;;;;;;12.52;5.80;;;21.60;76.50;;;;;;5098708;28;20023;-84
2022/09/05 08:15:55;;;;;;;10.32;5.82;;;21.70;76.40;;;;;;5079960;28;20036;-85
2022/09/05 08:18:40;;;;;;;8.32;5.38;;;21.80;76.00;;;;;;5098214;28;20020;-85
2022/09/05 08:21:09;;;;;;;9.48;5.18;;;21.90;75.50;;;;;;5079743;28;20048;-84
2022/09/05 08:23:49;;;;;;;9.55;5.50;;;21.90;75.00;;;;;;5097694;28;20078;-85
2022/09/05 08:26:38;;;;;;;6.43;4.78;;;22.10;74.70;;;;;;5109571;28;20032;-86
2022/09/05 08:29:24;;;;;;;8.32;4.85;;;22.00;74.40;;;;;;5115751;28;20515;-86
2022/09/05 08:32:10;;;;;;;6.97;4.35;;;22.10;74.30;;;;;;5084836;28;20032;-83
2022/09/05 08:34:55;;;;;;;8.18;5.55;;;22.00;74.00;;;;;;5088078;28;20020;-85
2022/09/05 08:37:24;;;;;;;8.00;4.82;;;22.20;74.30;;;;;;5096331;28;20027;-84
2022/09/05 08:40:04;;;;;;;10.27;4.85;;;22.30;74.10;;;;;;5097612;28;20071;-85
2022/09/05 08:42:36;;;;;;;7.35;4.82;;;22.40;73.90;;;;;;5100540;28;20089;-84
2022/09/05 08:45:26;;;;;;;7.63;4.30;;;22.60;72.80;;;;;;5097557;28;20080;-84
2022/09/05 08:48:19;;;;;;;9.98;4.20;;;22.80;72.10;;;;;;5097463;28;20068;-83
2022/09/05 08:50:52;;;;;;;7.65;4.13;;;23.00;71.00;;;;;;5097492;28;20035;-83
2022/09/05 08:53:30;;;;;;;7.95;3.90;;;23.30;70.40;;;;;;5097533;28;20050;-82
2022/09/05 08:56:09;;;;;;;8.45;3.47;;;23.50;70.30;;;;;;5097350;28;20228;-83
2022/09/05 08:58:55;;;;;;;7.80;3.60;;;23.80;69.30;;;;;;5097733;28;20068;-83
2022/09/05 09:01:26;;;;;;;8.27;3.47;;;23.60;68.70;;;;;;5095350;28;20043;-83
2022/09/05 09:04:06;;;;;;;4.95;3.08;;;23.90;68.50;;;;;;5099811;28;20429;-83
2022/09/05 09:06:57;;;;;;;5.78;3.17;;;24.10;68.30;;;;;;5094786;28;20032;-84
2022/09/05 09:09:54;;;;;;;7.55;3.20;;;24.30;66.40;;;;;;5078879;28;20032;-84
2022/09/05 09:12:28;;;;;;;4.50;2.63;;;24.30;64.90;;;;;;5116600;28;20410;-83
2022/09/05 09:15:10;;;;;;;6.20;3.35;;;24.30;66.10;;;;;;5106932;28;20048;-84
2022/09/05 09:17:44;;;;;;;3.90;2.30;;;24.20;64.40;;;;;;5106162;28;20032;-84
2022/09/05 09:20:25;;;;;;;4.90;2.63;;;24.20;64.50;;;;;;5097265;28;20594;-84
2022/09/05 09:23:00;;;;;;;4.60;2.17;;;24.30;64.50;;;;;;5096934;28;20054;-84
2022/09/05 09:25:53;;;;;;;5.47;2.38;;;24.60;62.90;;;;;;5078524;28;20036;-85
2022/09/05 09:28:45;;;;;;;4.18;2.00;;;24.90;63.20;;;;;;5096806;28;20020;-84
2022/09/05 09:31:40;;;;;;;3.55;1.98;;;25.30;61.70;;;;;;5078168;28;20020;-84
2022/09/05 09:34:28;;;;;;;3.38;1.70;;;25.60;59.70;;;;;;5059423;28;20031;-84
2022/09/05 09:37:13;;;;;;;4.28;1.70;;;25.80;59.70;;;;;;5083495;28;20062;-84
2022/09/05 09:40:08;;;;;;;3.25;1.50;;;25.80;58.80;;;;;;5096623;28;20024;-82
2022/09/05 09:42:44;;;;;;;4.18;1.80;;;25.90;58.90;;;;;;5096652;28;20413;-83
2022/09/05 09:45:34;;;;;;;5.43;2.17;;;25.80;58.30;;;;;;5077876;28;20052;-83
2022/09/05 09:48:09;;;;;;;4.78;1.70;;;25.70;57.50;;;;;;5096414;28;20077;-84
2022/09/05 09:50:53;;;;;;;6.80;1.50;;;25.40;58.10;;;;;;5096601;28;20023;-85
2022/09/05 09:53:37;;;;;;;3.58;1.90;;;25.30;58.80;;;;;;5113386;28;20023;-85
2022/09/05 09:56:12;;;;;;;3.60;1.58;;;25.50;58.50;;;;;;5098228;28;20028;-84
2022/09/05 09:58:52;;;;;;;5.47;1.90;;;25.60;57.50;;;;;;5075969;28;20086;-83
2022/09/05 10:01:53;;;;;;;3.97;1.50;;;25.80;56.70;;;;;;5077642;28;20020;-82
2022/09/05 10:04:25;;;;;;;4.03;1.50;;;25.90;56.70;;;;;;5096377;28;20028;-82
2022/09/05 10:07:03;;;;;;;3.85;1.40;;;26.10;56.80;;;;;;5077999;28;20060;-82
2022/09/05 10:10:03;;;;;;;4.65;1.60;;;26.80;56.00;;;;;;5096327;28;20020;-82
2022/09/05 10:13:03;;;;;;;2.05;1.20;;;26.90;54.90;;;;;;5077451;28;20491;-83
2022/09/05 10:15:40;;;;;;;5.18;1.45;;;26.50;54.30;;;;;;5094544;28;20465;-84
2022/09/05 10:18:32;;;;;;;3.13;1.35;;;26.80;53.50;;;;;;5095337;28;20019;-82
2022/09/05 10:21:10;;;;;;;2.83;1.45;;;26.30;55.00;;;;;;5095686;28;20031;-83
2022/09/05 10:24:14;;;;;;;5.78;1.83;;;26.10;55.40;;;;;;5095931;28;20020;-83
2022/09/05 10:26:46;;;;;;;4.75;1.98;;;25.80;56.40;;;;;;5113467;28;20031;-85
2022/09/05 10:30:06;;;;;;;3.33;1.40;;;25.60;57.00;;;;;;5116404;28;20054;-83
2022/09/05 10:32:40;;;;;;;4.35;1.83;;;25.50;57.30;;;;;;5012024;28;20108;-84
2022/09/05 10:35:20;;;;;;;2.30;1.50;;;25.50;56.80;;;;;;5074671;28;20126;-83
2022/09/05 10:37:53;;;;;;;3.45;1.63;;;25.60;57.10;;;;;;5109010;28;20052;-85
2022/09/05 10:40:23;;;;;;;5.13;1.55;;;25.80;56.10;;;;;;5078041;28;20020;-85
2022/09/05 10:42:53;;;;;;;4.10;1.70;;;25.70;56.30;;;;;;5077533;28;20027;-83
2022/09/05 10:45:54;;;;;;;4.00;1.30;;;25.70;56.40;;;;;;5095423;28;20433;-84
2022/09/05 10:48:28;;;;;;;5.00;1.20;;;25.70;56.40;;;;;;5050083;28;20033;-83
2022/09/05 10:51:07;;;;;;;4.25;1.42;;;25.80;57.00;;;;;;5106434;28;20028;-84
2022/09/05 10:53:57;;;;;;;3.17;1.48;;;25.80;55.40;;;;;;5097214;28;20118;-83
2022/09/05 10:56:28;;;;;;;3.67;1.48;;;26.00;55.60;;;;;;5102738;28;20051;-83
2022/09/05 10:59:03;;;;;;;5.78;1.60;;;26.10;55.20;;;;;;5095449;28;20038;-84
2022/09/05 11:01:40;;;;;;;3.38;1.63;;;26.10;55.10;;;;;;5095346;28;20142;-85
2022/09/05 11:04:34;;;;;;;4.32;1.38;;;26.20;54.60;;;;;;5077384;28;20119;-83
2022/09/05 11:07:13;;;;;;;5.45;1.60;;;26.30;55.80;;;;;;5115301;28;20403;-87
2022/09/05 11:10:00;;;;;;;4.00;1.90;;;26.40;55.50;;;;;;5115851;28;20027;-80
2022/09/05 11:12:27;;;;;;;5.40;1.67;;;26.40;54.40;;;;;;5115505;28;20757;-83
2022/09/05 11:14:56;;;;;;;3.15;1.35;;;26.60;54.50;;;;;;5115653;28;20502;-84
2022/09/05 11:17:37;;;;;;;4.30;1.75;;;26.50;53.60;;;;;;5115276;28;20027;-82
2022/09/05 11:20:48;;;;;;;3.42;1.63;;;26.70;54.10;;;;;;5096855;28;20550;-84
2022/09/05 11:23:18;;;;;;;5.22;1.58;;;27.10;53.90;;;;;;5091221;28;20536;-82
2022/09/05 11:25:46;;;;;;;3.38;1.10;;;27.20;52.40;;;;;;5100925;28;20024;-82
2022/09/05 11:28:17;;;;;;;3.15;1.38;;;27.10;52.30;;;;;;5097851;28;20019;-83
2022/09/05 11:30:50;;;;;;;3.28;1.35;;;27.20;53.30;;;;;;5106692;28;20020;-84
2022/09/05 11:33:38;;;;;;;3.13;1.35;;;27.00;51.30;;;;;;5092062;28;20023;-83
2022/09/05 11:36:32;;;;;;;3.08;1.20;;;26.80;51.90;;;;;;5080687;28;20023;-83
2022/09/05 11:39:17;;;;;;;4.03;1.20;;;26.90;52.50;;;;;;5098915;28;20035;-83
2022/09/05 11:42:21;;;;;;;2.90;1.65;;;27.00;52.80;;;;;;5080590;28;20021;-83
2022/09/05 11:45:31;;;;;;;1.73;0.93;;;27.00;52.20;;;;;;5104842;28;20073;-83
2022/09/05 11:48:38;;;;;;;3.55;2.08;;;27.00;51.10;;;;;;5106347;28;20097;-84
2022/09/05 11:51:32;;;;;;;3.05;1.48;;;27.00;50.10;;;;;;5107006;28;20024;-84
2022/09/05 11:54:41;;;;;;;3.17;1.52;;;27.00;50.60;;;;;;5098598;28;20024;-82
2022/09/05 11:57:13;;;;;;;;;;;26.80;50.20;;;;;;5116428;28;20042;-83
2022/09/05 12:00:10;;;;;;;3.13;0.80;;;26.80;51.90;;;;;;5119151;28;19904;-81
2022/09/05 12:02:54;;;;;;;3.60;1.48;;;26.80;51.70;;;;;;5080039;28;20070;-83
2022/09/05 12:05:51;;;;;;;6.10;1.15;;;26.90;50.50;;;;;;5098545;28;20080;-83
2022/09/05 12:08:39;;;;;;;2.92;0.85;;;27.10;50.40;;;;;;5098310;28;20024;-82
2022/09/05 12:11:34;;;;;;;1.85;0.98;;;27.10;49.00;;;;;;5080526;28;20491;-83
2022/09/05 12:14:20;;;;;;;5.22;1.40;;;27.10;48.20;;;;;;5080273;28;20620;-82
2022/09/05 12:16:59;;;;;;;4.00;1.70;;;27.00;49.00;;;;;;5099493;28;20392;-83
2022/09/05 12:19:33;;;;;;;2.55;1.00;;;26.90;48.00;;;;;;5118663;28;20149;-83
2022/09/05 12:22:28;;;;;;;3.20;1.25;;;26.90;48.40;;;;;;5114280;28;20040;-83
2022/09/05 12:25:12;;;;;;;4.00;0.95;;;27.00;47.50;;;;;;5080146;28;20032;-83
2022/09/05 12:27:38;;;;;;;2.35;0.88;;;27.10;48.10;;;;;;5097645;28;20107;-83
2022/09/05 12:30:06;;;;;;;1.58;0.77;;;27.30;49.00;;;;;;5099563;28;20558;-83
2022/09/05 12:32:35;;;;;;;3.20;0.80;;;27.50;49.00;;;;;;5098061;28;20028;-83
2022/09/05 12:35:02;;;;;;;3.20;0.70;;;27.50;47.10;;;;;;5091070;28;20024;-83
2022/09/05 12:37:36;;;;;;;4.53;0.90;;;27.60;47.50;;;;;;5108723;28;20038;-83
2022/09/05 12:40:08;;;;;;;2.70;0.52;;;27.60;48.40;;;;;;5097876;28;20027;-83
2022/09/05 12:42:49;;;;;;;2.22;0.95;;;27.70;47.00;;;;;;5079782;28;20024;-83
2022/09/05 12:45:39;;;;;;;2.92;1.00;;;27.80;47.60;;;;;;5097448;28;20102;-82
2022/09/05 12:48:20;;;;;;;3.30;1.15;;;27.50;47.60;;;;;;5097538;28;20052;-83
2022/09/05 12:51:00;;;;;;;2.63;0.82;;;27.60;47.70;;;;;;5097780;28;20021;-83
2022/09/05 12:53:46;;;;;;;1.83;0.80;;;27.70;47.50;;;;;;5097231;28;20031;-83
2022/09/05 12:56:22;;;;;;;1.42;0.73;;;27.40;46.70;;;;;;5097388;28;20035;-83
2022/09/05 12:58:50;;;;;;;1.70;0.60;;;27.30;46.50;;;;;;5097348;28;20031;-83
2022/09/05 13:01:42;;;;;;;2.85;0.73;;;27.40;46.00;;;;;;5097020;28;20020;-83
2022/09/05 13:04:17;;;;;;;3.13;0.80;;;27.40;45.40;;;;;;5097444;28;20095;-84
2022/09/05 13:06:55;;;;;;;3.53;1.10;;;27.50;46.10;;;;;;5079232;28;20033;-83
2022/09/05 13:09:25;;;;;;;3.83;1.10;;;27.50;47.00;;;;;;5097296;28;20020;-83
2022/09/05 13:12:06;;;;;;;2.70;1.10;;;27.60;47.10;;;;;;5105605;28;20039;-83
2022/09/05 13:14:56;;;;;;;3.03;1.00;;;27.80;46.30;;;;;;5097021;28;20012;-83
2022/09/05 13:17:37;;;;;;;2.45;1.00;;;27.90;46.60;;;;;;5084605;28;20032;-83
2022/09/05 13:20:14;;;;;;;3.38;1.00;;;28.00;45.60;;;;;;5078734;28;20093;-84
2022/09/05 13:22:42;;;;;;;3.00;0.75;;;28.00;45.50;;;;;;5114513;28;20071;-83
2022/09/05 13:25:15;;;;;;;2.60;0.80;;;28.10;46.40;;;;;;5117277;28;20115;-84
2022/09/05 13:27:55;;;;;;;3.45;0.90;;;28.00;47.20;;;;;;5109007;28;20082;-84
2022/09/05 13:30:23;;;;;;;2.80;1.00;;;27.90;47.70;;;;;;5096794;28;20017;-83
2022/09/05 13:32:55;;;;;;;2.80;1.17;;;28.00;47.70;;;;;;5078837;28;20156;-83
2022/09/05 13:35:27;;;;;;;1.58;1.00;;;28.30;48.20;;;;;;5110098;28;20020;-85
2022/09/05 13:38:07;;;;;;;3.88;1.38;;;28.50;47.80;;;;;;5116932;28;20027;-83
2022/09/05 13:40:39;;;;;;;4.00;1.30;;;28.60;46.30;;;;;;5117235;28;20011;-83
2022/09/05 13:43:08;;;;;;;1.70;1.00;;;28.40;46.40;;;;;;5116849;28;20023;-83
2022/09/05 13:45:53;;;;;;;2.83;1.20;;;28.30;46.30;;;;;;5116611;28;20043;-84
2022/09/05 13:48:41;;;;;;;4.85;1.55;;;28.10;46.70;;;;;;5094605;28;20028;-82
2022/09/05 13:51:26;;;;;;;3.05;1.38;;;28.20;47.80;;;;;;5078459;28;20077;-82
2022/09/05 13:54:02;;;;;;;3.38;1.23;;;28.30;46.60;;;;;;5096141;28;20113;-83
2022/09/05 13:56:31;;;;;;;7.10;2.50;;;28.00;46.60;;;;;;5078156;28;20480;-82
2022/09/05 13:59:07;;;;;;;2.75;1.52;;;27.80;47.10;;;;;;5096133;28;20058;-82
2022/09/05 14:01:53;;;;;;;4.22;1.27;;;27.80;47.40;;;;;;5096102;28;20031;-82
2022/09/05 14:04:54;;;;;;;2.88;1.58;;;27.80;47.00;;;;;;5077840;28;20031;-82
2022/09/05 14:08:03;;;;;;;2.65;1.38;;;27.90;48.90;;;;;;5077838;28;20043;-82